createdAt,value
2024-03-04T00:00:36.533Z,43.88
2024-03-04T00:03:22.069Z,44.30
2024-03-04T00:06:07.618Z,38.13
2024-03-04T00:08:54.715Z,35.60
2024-03-04T00:11:40.296Z,37.85
2024-03-04T00:14:25.785Z,32.00
2024-03-04T00:17:11.608Z,35.17
2024-03-04T00:19:58.051Z,37.78
2024-03-04T00:22:46.369Z,33.08
2024-03-04T00:25:32.956Z,36.50
2024-03-04T00:28:18.851Z,34.58
2024-03-04T00:31:07.689Z,37.70
2024-03-04T00:33:54.065Z,46.70
2024-03-04T00:36:39.501Z,43.53
2024-03-04T00:39:25.322Z,40.88
2024-03-04T00:42:10.614Z,35.38
2024-03-04T00:44:56.641Z,41.50
2024-03-04T00:47:44.806Z,39.97
2024-03-04T00:50:31.237Z,41.10
2024-03-04T00:53:17.454Z,35.47
2024-03-04T00:56:04.404Z,43.08
2024-03-04T00:58:50.239Z,38.67
2024-03-04T01:01:36.058Z,32.42
2024-03-04T01:04:21.940Z,42.70
2024-03-04T01:07:07.703Z,38.13
2024-03-04T01:09:55.359Z,40.03
2024-03-04T01:12:40.578Z,34.95
2024-03-04T01:15:27.082Z,38.85
2024-03-04T01:18:15.930Z,35.90
2024-03-04T01:21:01.421Z,35.67
2024-03-04T01:23:47.970Z,35.60
2024-03-04T01:26:34.220Z,34.88
2024-03-04T01:29:19.784Z,42.25
2024-03-04T01:32:06.029Z,32.03
2024-03-04T01:34:51.433Z,37.60
2024-03-04T01:37:37.108Z,33.78
2024-03-04T01:40:22.865Z,32.00
2024-03-04T01:43:09.273Z,39.25
2024-03-04T01:45:54.961Z,39.00
2024-03-04T01:48:41.005Z,34.92
2024-03-04T01:51:26.882Z,33.95
2024-03-04T01:54:13.083Z,33.10
2024-03-04T01:56:58.886Z,28.77
2024-03-04T01:59:47.776Z,33.78
2024-03-04T02:02:33.157Z,29.35
2024-03-04T02:05:19.266Z,36.67
2024-03-04T02:08:05.052Z,32.15
2024-03-04T02:10:50.918Z,34.90
2024-03-04T02:13:39.740Z,31.40
2024-03-04T02:16:25.001Z,30.20
2024-03-04T02:19:13.016Z,28.60
2024-03-04T02:22:02.738Z,26.20
2024-03-04T02:24:48.426Z,31.23
2024-03-04T02:27:36.195Z,29.90
2024-03-04T02:30:22.264Z,29.65
2024-03-04T02:33:07.802Z,30.23
2024-03-04T02:35:55.928Z,37.65
2024-03-04T02:38:42.143Z,28.83
2024-03-04T02:41:27.655Z,30.77
2024-03-04T02:44:13.309Z,27.10
2024-03-04T02:46:59.622Z,30.17
2024-03-04T02:49:47.801Z,35.50
2024-03-04T02:52:33.381Z,29.92
2024-03-04T02:55:19.539Z,31.90
2024-03-04T02:58:07.610Z,30.40
2024-03-04T03:00:53.197Z,31.25
2024-03-04T03:03:38.699Z,34.78
2024-03-04T03:06:24.446Z,31.77
2024-03-04T03:09:10.719Z,29.38
2024-03-04T03:11:58.952Z,29.85
2024-03-04T03:14:44.704Z,31.30
2024-03-04T03:17:30.298Z,26.88
2024-03-04T03:20:19.490Z,29.00
2024-03-04T03:23:05.696Z,29.77
2024-03-04T03:25:51.339Z,30.27
2024-03-04T03:28:42.046Z,31.50
2024-03-04T03:31:27.956Z,30.08
2024-03-04T03:34:13.777Z,29.50
2024-03-04T03:37:01.558Z,27.70
2024-03-04T03:39:46.787Z,33.85
2024-03-04T03:42:35.709Z,25.70
2024-03-04T03:45:21.106Z,36.53
2024-03-04T03:48:11.510Z,32.97
2024-03-04T03:50:57.032Z,30.98
2024-03-04T03:53:42.735Z,28.75
2024-03-04T03:56:29.380Z,26.00
2024-03-04T03:59:14.783Z,39.35
2024-03-04T04:02:00.483Z,26.42
2024-03-04T04:04:47.023Z,27.00
2024-03-04T04:07:32.751Z,26.65
2024-03-04T04:10:18.119Z,30.17
2024-03-04T04:13:03.844Z,25.73
2024-03-04T04:15:51.022Z,25.45
2024-03-04T04:18:36.841Z,32.22
2024-03-04T04:21:22.816Z,31.92
2024-03-04T04:24:12.005Z,24.58
2024-03-04T04:26:59.862Z,26.23
2024-03-04T04:29:47.915Z,33.67
2024-03-04T04:32:36.237Z,27.70
2024-03-04T04:35:21.550Z,28.85
2024-03-04T04:38:07.122Z,26.13
2024-03-04T04:40:52.808Z,31.80
2024-03-04T04:43:38.533Z,24.83
2024-03-04T04:46:24.067Z,26.60
2024-03-04T04:49:09.835Z,28.27
2024-03-04T04:51:55.432Z,23.05
2024-03-04T04:54:41.026Z,21.50
2024-03-04T04:57:30.980Z,37.67
2024-03-04T05:00:17.101Z,31.77
2024-03-04T05:03:04.661Z,28.80
2024-03-04T05:05:50.475Z,30.73
2024-03-04T05:08:36.167Z,26.20
2024-03-04T05:11:24.837Z,25.25
2024-03-04T05:14:10.433Z,29.27
2024-03-04T05:16:58.571Z,37.60
2024-03-04T05:19:44.690Z,28.35
2024-03-04T05:22:30.294Z,30.55
2024-03-04T05:25:15.914Z,25.23
2024-03-04T05:28:01.474Z,27.80
2024-03-04T05:30:47.100Z,27.15
2024-03-04T05:33:32.552Z,33.67
2024-03-04T05:36:18.287Z,24.75
2024-03-04T05:39:07.800Z,31.10
2024-03-04T05:41:53.230Z,32.90
2024-03-04T05:44:38.721Z,28.27
2024-03-04T05:47:25.379Z,25.77
2024-03-04T05:50:15.461Z,21.42
2024-03-04T05:53:01.007Z,23.67
2024-03-04T05:55:46.823Z,31.25
2024-03-04T05:58:32.440Z,24.90
2024-03-04T06:01:18.114Z,20.63
2024-03-04T06:04:05.979Z,26.33
2024-03-04T06:06:51.326Z,26.15
2024-03-04T06:09:37.052Z,28.33
2024-03-04T06:12:22.763Z,23.48
2024-03-04T06:15:08.516Z,24.48
2024-03-04T06:17:54.359Z,30.02
2024-03-04T06:20:39.914Z,28.60
2024-03-04T06:52:44.731Z,31.33
2024-03-04T06:55:30.128Z,31.45
2024-03-04T06:58:17.757Z,36.97
2024-03-04T07:01:03.884Z,28.30
2024-03-04T07:03:49.876Z,26.92
2024-03-04T07:06:37.582Z,25.23
2024-03-04T07:09:23.052Z,27.63
2024-03-04T07:12:08.967Z,24.77
2024-03-04T07:14:54.250Z,26.88
2024-03-04T07:17:40.194Z,27.33
2024-03-04T07:20:25.998Z,24.45
2024-03-04T07:23:12.176Z,23.65
2024-03-04T07:25:57.518Z,25.30
2024-03-04T07:28:44.705Z,24.50
2024-03-04T07:31:30.004Z,23.65
2024-03-04T07:34:16.325Z,24.50
2024-03-04T07:37:01.905Z,30.67
2024-03-04T07:39:49.881Z,20.13
2024-03-04T07:42:35.939Z,26.38
2024-03-04T07:45:21.197Z,23.25
2024-03-04T07:48:07.306Z,23.95
2024-03-04T07:50:53.275Z,25.40
2024-03-04T07:53:38.820Z,26.52
2024-03-04T07:56:25.277Z,22.95
2024-03-04T07:59:10.665Z,22.60
2024-03-04T08:01:56.027Z,25.70
2024-03-04T08:04:45.834Z,28.42
2024-03-04T08:07:31.640Z,28.10
2024-03-04T08:10:18.513Z,24.15
2024-03-04T08:13:04.212Z,24.25
2024-03-04T08:15:52.283Z,23.48
2024-03-04T08:18:37.954Z,26.50
2024-03-04T08:21:23.473Z,25.02
2024-03-04T08:24:08.781Z,37.00
2024-03-04T08:26:54.682Z,32.05
2024-03-04T08:29:40.370Z,26.88
2024-03-04T08:32:25.737Z,24.33
2024-03-04T08:35:12.024Z,27.98
2024-03-04T08:37:57.639Z,26.30
2024-03-04T08:40:43.064Z,28.60
2024-03-04T08:43:28.741Z,26.83
2024-03-04T08:46:14.622Z,26.05
2024-03-04T08:49:00.078Z,30.60
2024-03-04T08:51:45.638Z,33.97
2024-03-04T08:54:32.943Z,33.85
2024-03-04T08:57:21.103Z,26.10
2024-03-04T09:00:09.922Z,36.78
2024-03-04T09:02:55.983Z,34.35
2024-03-04T09:05:43.292Z,28.00
2024-03-04T09:08:28.744Z,27.13
2024-03-04T09:11:14.702Z,33.60
2024-03-04T09:14:00.166Z,28.52
2024-03-04T09:16:48.479Z,27.20
2024-03-04T09:19:34.578Z,33.15
2024-03-04T09:22:20.481Z,24.83
2024-03-04T09:25:07.098Z,25.25
2024-03-04T09:27:52.505Z,25.55
2024-03-04T09:30:38.217Z,21.15
2024-03-04T09:33:23.775Z,28.60
2024-03-04T09:36:09.409Z,29.63
2024-03-04T09:38:54.923Z,25.58
2024-03-04T09:41:40.603Z,38.45
2024-03-04T09:44:28.733Z,37.03
2024-03-04T09:47:16.688Z,28.17
2024-03-04T09:50:03.353Z,24.50
2024-03-04T09:52:50.395Z,21.15
2024-03-04T09:55:36.000Z,25.70
2024-03-04T09:58:25.319Z,25.70
2024-03-04T10:01:13.538Z,28.33
2024-03-04T10:03:59.523Z,23.63
2024-03-04T10:06:45.724Z,23.42
2024-03-04T10:09:32.041Z,21.85
2024-03-04T10:12:17.698Z,24.23
2024-03-04T10:15:07.520Z,28.90
2024-03-04T10:17:55.083Z,38.35
2024-03-04T10:20:41.419Z,36.17
2024-03-04T10:23:27.014Z,26.65
2024-03-04T10:26:13.178Z,28.52
2024-03-04T10:28:58.809Z,31.00
2024-03-04T10:31:54.511Z,25.15
2024-03-04T10:34:40.480Z,25.52
2024-03-04T10:37:25.881Z,24.13
2024-03-04T10:40:12.435Z,35.10
2024-03-04T10:43:01.597Z,29.30
2024-03-04T10:45:47.231Z,32.08
2024-03-04T10:48:32.974Z,29.58
2024-03-04T10:51:19.234Z,26.73
2024-03-04T10:54:04.768Z,31.20
2024-03-04T10:57:24.828Z,28.77
2024-03-04T11:00:26.810Z,29.52
2024-03-04T11:03:16.743Z,32.85
2024-03-04T11:06:02.261Z,37.55
2024-03-04T11:09:00.035Z,23.60
2024-03-04T11:11:53.556Z,22.63
2024-03-04T11:14:43.947Z,33.92
2024-03-04T11:17:34.079Z,25.25
2024-03-04T11:20:21.477Z,27.00
2024-03-04T11:23:07.821Z,30.90
2024-03-04T11:25:54.125Z,28.92
2024-03-04T11:28:42.863Z,25.75
2024-03-04T11:31:30.126Z,23.38
2024-03-04T11:34:16.390Z,28.27
2024-03-04T11:37:02.200Z,27.17
2024-03-04T11:39:47.966Z,23.90
2024-03-04T11:42:39.804Z,26.80
2024-03-04T11:45:35.350Z,23.63
2024-03-04T11:48:32.700Z,19.65
2024-03-04T11:51:44.266Z,25.25
2024-03-04T11:54:36.479Z,27.20
2024-03-04T11:57:25.199Z,24.73
2024-03-04T12:00:11.508Z,30.55
2024-03-04T12:03:06.466Z,38.72
2024-03-04T12:05:52.244Z,34.45
2024-03-04T12:08:51.961Z,44.20
2024-03-04T12:11:43.301Z,51.90
2024-03-04T12:14:28.583Z,28.50
2024-03-04T12:17:15.027Z,44.55
2024-03-04T12:20:00.524Z,38.65
2024-03-04T12:22:46.392Z,46.53
2024-03-04T12:25:34.665Z,43.72
2024-03-04T12:28:20.143Z,35.30
2024-03-04T12:31:17.359Z,34.20
2024-03-04T12:34:07.933Z,30.33
2024-03-04T12:36:54.751Z,32.45
2024-03-04T12:39:40.174Z,32.85
2024-03-04T12:42:25.967Z,30.73
2024-03-04T12:45:12.812Z,33.50
2024-03-04T12:48:00.912Z,35.45
2024-03-04T12:50:46.977Z,30.90
2024-03-04T12:53:32.711Z,38.50
2024-03-04T12:56:18.008Z,42.92
2024-03-04T12:59:04.090Z,38.70
2024-03-04T13:01:49.849Z,37.03
2024-03-04T13:04:35.109Z,41.05
2024-03-04T13:07:21.432Z,37.90
2024-03-04T13:10:08.762Z,37.05
2024-03-04T13:12:54.500Z,51.00
2024-03-04T13:15:45.358Z,53.40
2024-03-04T13:18:32.706Z,50.42
2024-03-04T13:21:18.209Z,46.47
2024-03-04T13:24:04.153Z,42.78
2024-03-04T13:26:49.788Z,42.58
2024-03-04T13:29:35.215Z,42.35
2024-03-04T13:32:20.933Z,39.83
2024-03-04T13:35:10.524Z,38.72
2024-03-04T13:37:56.479Z,38.97
2024-03-04T13:40:46.743Z,36.72
2024-03-04T13:43:32.106Z,49.78
2024-03-04T13:46:18.028Z,40.03
2024-03-04T13:49:03.393Z,38.08
2024-03-04T13:51:48.817Z,56.13
2024-03-04T13:54:35.224Z,32.03
2024-03-04T13:57:21.044Z,42.03
2024-03-04T14:00:13.400Z,37.70
2024-03-04T14:02:59.202Z,42.60
2024-03-04T14:05:45.260Z,36.38
2024-03-04T14:08:31.491Z,36.55
2024-03-04T14:11:17.276Z,36.95
2024-03-04T14:14:02.913Z,35.78
2024-03-04T14:16:48.692Z,31.38
2024-03-04T14:19:34.194Z,37.67
2024-03-04T14:22:19.571Z,39.30
2024-03-04T14:25:05.529Z,35.00
2024-03-04T14:27:51.043Z,38.05
2024-03-04T14:30:36.443Z,33.67
2024-03-04T14:33:28.624Z,33.38
2024-03-04T14:36:17.612Z,30.45
2024-03-04T14:39:03.106Z,37.25
2024-03-04T14:41:49.145Z,41.25
2024-03-04T14:44:35.014Z,31.80
2024-03-04T14:47:20.359Z,34.95
2024-03-04T14:50:08.553Z,38.25
2024-03-04T14:52:56.110Z,43.08
2024-03-04T14:55:44.064Z,37.65
2024-03-04T14:58:29.906Z,33.38
2024-03-04T15:01:15.439Z,48.00
2024-03-04T15:04:02.634Z,38.60
2024-03-04T15:06:49.033Z,41.22
2024-03-04T15:09:36.537Z,34.58
2024-03-04T15:12:21.958Z,39.22
2024-03-04T15:15:21.315Z,44.38
2024-03-04T15:18:15.492Z,43.58
2024-03-04T15:21:07.929Z,37.90
2024-03-04T15:23:55.361Z,37.22
2024-03-04T15:26:41.074Z,40.72
2024-03-04T15:29:26.652Z,36.33
2024-03-04T15:32:12.644Z,39.50
2024-03-04T15:34:58.020Z,47.55
2024-03-04T15:37:43.974Z,43.85
2024-03-04T15:40:34.424Z,48.35
2024-03-04T15:43:19.835Z,51.13
2024-03-04T15:46:05.482Z,43.47
2024-03-04T15:48:51.177Z,42.55
2024-03-04T15:51:37.042Z,43.03
2024-03-04T15:54:22.626Z,41.13
2024-03-04T15:57:09.060Z,56.50
2024-03-04T15:59:54.271Z,51.30
2024-03-04T16:02:39.796Z,41.50
2024-03-04T16:05:25.444Z,41.63
2024-03-04T16:08:10.962Z,43.83
2024-03-04T16:10:56.840Z,49.13
2024-03-04T16:13:42.934Z,47.03
2024-03-04T16:16:28.754Z,50.10
2024-03-04T16:19:14.308Z,41.20
2024-03-04T16:21:59.642Z,44.58
2024-03-04T16:24:45.264Z,48.83
2024-03-04T16:27:33.198Z,43.95
2024-03-04T16:30:19.050Z,54.60
2024-03-04T16:33:06.351Z,53.97
2024-03-04T16:35:52.325Z,47.55
2024-03-04T16:38:38.326Z,45.72
2024-03-04T16:41:23.889Z,48.42
2024-03-04T16:44:09.901Z,46.10
2024-03-04T16:46:56.682Z,46.17
2024-03-04T16:49:42.646Z,63.15
2024-03-04T16:52:28.208Z,44.70
2024-03-04T16:55:14.020Z,56.25
2024-03-04T16:58:04.464Z,55.17
2024-03-04T17:00:51.165Z,55.72
2024-03-04T17:03:38.191Z,59.17
2024-03-04T17:06:23.605Z,55.28
2024-03-04T17:09:09.059Z,56.20
2024-03-04T17:11:55.058Z,68.35
2024-03-04T17:14:41.943Z,73.25
2024-03-04T17:17:27.355Z,71.03
2024-03-04T17:20:14.065Z,57.60
2024-03-04T17:22:59.694Z,59.92
2024-03-04T17:25:45.235Z,61.45
2024-03-04T17:28:30.931Z,76.40
2024-03-04T17:31:25.583Z,55.65
2024-03-04T17:34:11.151Z,53.55
2024-03-04T17:36:56.764Z,50.90
2024-03-04T17:39:42.387Z,55.63
2024-03-04T17:42:28.048Z,43.97
2024-03-04T17:45:14.699Z,52.30
2024-03-04T17:48:00.735Z,48.75
2024-03-04T17:50:46.772Z,47.22
2024-03-04T17:53:34.845Z,57.65
2024-03-04T17:56:20.589Z,42.78
2024-03-04T17:59:09.362Z,53.28
2024-03-04T18:01:54.769Z,47.90
2024-03-04T18:04:43.698Z,64.07
2024-03-04T18:07:29.581Z,52.63
2024-03-04T18:10:17.586Z,52.30
2024-03-04T18:13:07.181Z,54.88
2024-03-04T18:15:55.629Z,49.72
2024-03-04T18:18:41.452Z,53.33
2024-03-04T18:21:27.236Z,54.92
2024-03-04T18:24:13.188Z,47.10
2024-03-04T18:26:58.639Z,53.72
2024-03-04T18:29:46.582Z,49.83
2024-03-04T18:32:32.617Z,42.33
2024-03-04T18:35:17.972Z,54.78
2024-03-04T18:38:05.651Z,46.28
2024-03-04T18:40:51.147Z,46.13
2024-03-04T18:43:36.899Z,50.40
2024-03-04T18:46:22.720Z,48.28
2024-03-04T18:49:15.365Z,53.05
2024-03-04T18:52:01.101Z,45.58
2024-03-04T18:54:51.477Z,46.35
2024-03-04T18:57:37.230Z,48.45
2024-03-04T19:00:23.119Z,61.08
2024-03-04T19:03:08.742Z,61.50
2024-03-04T19:05:54.508Z,57.50
2024-03-04T19:08:42.765Z,58.65
2024-03-04T19:11:28.790Z,53.42
2024-03-04T19:14:15.333Z,57.95
2024-03-04T19:17:00.780Z,63.30
2024-03-04T19:19:46.433Z,58.53
2024-03-04T19:22:31.980Z,63.88
2024-03-04T19:25:17.308Z,66.88
2024-03-04T19:28:03.624Z,65.85
2024-03-04T19:30:50.342Z,55.45
2024-03-04T19:33:35.725Z,59.80
2024-03-04T19:36:24.361Z,57.67
2024-03-04T19:39:10.541Z,47.83
2024-03-04T19:41:56.297Z,47.88
2024-03-04T19:44:43.004Z,51.33
2024-03-04T19:47:30.701Z,57.75
2024-03-04T19:50:21.023Z,57.30
2024-03-04T19:53:08.708Z,61.65
2024-03-04T19:55:54.227Z,65.28
2024-03-04T19:58:46.237Z,66.18
2024-03-04T20:01:31.698Z,55.25
2024-03-04T20:04:18.031Z,58.38
2024-03-04T20:07:06.482Z,52.80
2024-03-04T20:09:53.616Z,54.22
2024-03-04T20:12:39.124Z,61.80
2024-03-04T20:15:24.690Z,50.15
2024-03-04T20:18:09.811Z,74.78
2024-03-04T20:20:55.638Z,82.07
2024-03-04T20:23:42.441Z,51.83
2024-03-04T20:26:28.971Z,69.60
2024-03-04T20:29:15.754Z,72.25
2024-03-04T20:32:01.444Z,55.78
2024-03-04T20:34:47.049Z,64.28
2024-03-04T20:37:32.929Z,71.80
2024-03-04T20:40:18.485Z,76.55
2024-03-04T20:43:08.553Z,73.88
2024-03-04T20:45:56.316Z,117.97
2024-03-04T20:48:44.487Z,124.40
2024-03-04T20:51:34.073Z,95.10
2024-03-04T20:54:19.679Z,73.65
2024-03-04T20:57:05.742Z,83.85
2024-03-04T20:59:53.092Z,70.63
2024-03-04T21:02:38.617Z,68.90
2024-03-04T21:05:25.207Z,64.65
2024-03-04T21:08:11.037Z,76.57
2024-03-04T21:10:56.810Z,67.00
2024-03-04T21:13:42.492Z,57.08
2024-03-04T21:16:33.207Z,53.97
2024-03-04T21:19:18.480Z,55.72
2024-03-04T21:22:04.402Z,62.55
2024-03-04T21:24:49.743Z,60.33
2024-03-04T21:27:38.339Z,59.00
2024-03-04T21:30:24.071Z,59.05
2024-03-04T21:33:12.162Z,63.88
2024-03-04T21:35:57.809Z,61.83
2024-03-04T21:38:45.607Z,62.45
2024-03-04T21:41:30.826Z,45.88
2024-03-04T21:44:19.188Z,52.55
2024-03-04T21:47:04.845Z,45.80
2024-03-04T21:49:50.285Z,59.13
2024-03-04T21:52:37.054Z,48.42
2024-03-04T21:55:24.780Z,48.95
2024-03-04T21:58:10.005Z,50.58
2024-03-04T22:00:55.659Z,53.17
2024-03-04T22:03:41.084Z,58.92
2024-03-04T22:06:26.530Z,59.17
2024-03-04T22:09:19.056Z,51.75
2024-03-04T22:12:08.284Z,55.88
2024-03-04T22:14:54.246Z,50.92
2024-03-04T22:17:40.003Z,49.67
2024-03-04T22:20:25.865Z,57.45
2024-03-04T22:23:14.137Z,49.17
2024-03-04T22:25:59.377Z,47.53
2024-03-04T22:28:45.251Z,52.33
2024-03-04T22:31:30.862Z,46.50
2024-03-04T22:34:16.532Z,48.33
2024-03-04T22:37:03.120Z,51.63
2024-03-04T22:39:48.296Z,48.70
2024-03-04T22:42:33.824Z,38.00
2024-03-04T22:45:21.112Z,43.60
2024-03-04T22:48:07.636Z,44.70
2024-03-04T22:50:55.337Z,45.38
2024-03-04T22:53:40.917Z,51.67
2024-03-04T22:56:26.265Z,45.78
2024-03-04T22:59:12.090Z,41.33
2024-03-04T23:01:57.550Z,43.55
2024-03-04T23:04:43.535Z,47.38
2024-03-04T23:07:30.246Z,37.92
2024-03-04T23:10:17.284Z,47.88
2024-03-04T23:13:06.578Z,38.92
2024-03-04T23:15:52.392Z,48.50
2024-03-04T23:18:39.598Z,54.67
2024-03-04T23:21:25.678Z,39.28
2024-03-04T23:24:11.972Z,40.78
2024-03-04T23:26:57.505Z,33.15
2024-03-04T23:30:32.922Z,44.13
2024-03-04T23:33:18.637Z,44.00
2024-03-04T23:36:04.613Z,42.78
2024-03-04T23:38:50.096Z,51.80
2024-03-04T23:41:35.708Z,55.22
2024-03-04T23:44:26.240Z,67.65
2024-03-04T23:47:11.524Z,87.10
2024-03-04T23:49:58.542Z,74.57
2024-03-04T23:52:45.741Z,59.08
2024-03-04T23:55:31.317Z,51.25
2024-03-04T23:58:17.402Z,34.58
